sensor_id;sensor_type;location;lat;lon;timestamp;temperature;humidity
1880;DHT22;49285;49.002;8.390;2022-07-01T00:01:22;18.70;99.90
1880;DHT22;49285;49.002;8.390;2022-07-01T00:03:47;18.80;99.90
1880;DHT22;49285;49.002;8.390;2022-07-01T00:06:15;18.80;99.90
1880;DHT22;49285;49.002;8.390;2022-07-01T00:08:41;18.70;99.90
1880;DHT22;49285;49.002;8.390;2022-07-01T00:11:06;18.80;99.90
1880;DHT22;49285;49.002;8.390;2022-07-01T00:13:32;18.80;99.90
1880;DHT22;49285;49.002;8.390;2022-07-01T00:15:58;18.90;99.90
1880;DHT22;49285;49.002;8.390;2022-07-01T00:18:24;18.80;99.90
1880;DHT22;49285;49.002;8.390;2022-07-01T00:20:50;18.90;99.90
1880;DHT22;49285;49.002;8.390;2022-07-01T00:23:16;18.70;99.90
1880;DHT22;49285;49.002;8.390;2022-07-01T00:25:43;18.80;99.90
1880;DHT22;49285;49.002;8.390;2022-07-01T00:28:09;18.80;99.90
1880;DHT22;49285;49.002;8.390;2022-07-01T00:30:34;18.80;99.90
1880;DHT22;49285;49.002;8.390;2022-07-01T00:33:00;18.80;99.90
1880;DHT22;49285;49.002;8.390;2022-07-01T00:35:26;18.70;99.90
1880;DHT22;49285;49.002;8.390;2022-07-01T00:37:51;18.70;99.90
1880;DHT22;49285;49.002;8.390;2022-07-01T00:40:17;18.70;99.90
1880;DHT22;49285;49.002;8.390;2022-07-01T00:42:42;18.60;99.90
1880;DHT22;49285;49.002;8.390;2022-07-01T00:45:10;18.60;99.90
1880;DHT22;49285;49.002;8.390;2022-07-01T00:47:37;18.70;99.90
1880;DHT22;49285;49.002;8.390;2022-07-01T00:50:07;18.70;99.90
1880;DHT22;49285;49.002;8.390;2022-07-01T00:52:34;18.70;99.90
1880;DHT22;49285;49.002;8.390;2022-07-01T00:55:04;18.70;99.90
1880;DHT22;49285;49.002;8.390;2022-07-01T00:57:31;18.60;99.90
1880;DHT22;49285;49.002;8.390;2022-07-01T00:59:57;18.70;99.90
1880;DHT22;49285;49.002;8.390;2022-07-01T01:02:22;18.70;99.90
1880;DHT22;49285;49.002;8.390;2022-07-01T01:04:48;18.80;99.90
1880;DHT22;49285;49.002;8.390;2022-07-01T01:07:14;18.50;99.90
1880;DHT22;49285;49.002;8.390;2022-07-01T01:09:40;18.50;99.90
1880;DHT22;49285;49.002;8.390;2022-07-01T01:12:05;18.60;99.90
1880;DHT22;49285;49.002;8.390;2022-07-01T01:14:47;18.50;99.90
1880;DHT22;49285;49.002;8.390;2022-07-01T01:17:14;18.50;99.90
1880;DHT22;49285;49.002;8.390;2022-07-01T01:19:41;18.50;99.90
1880;DHT22;49285;49.002;8.390;2022-07-01T01:22:07;18.60;99.90
1880;DHT22;49285;49.002;8.390;2022-07-01T01:24:33;18.50;99.90
1880;DHT22;49285;49.002;8.390;2022-07-01T01:26:58;18.50;99.90
1880;DHT22;49285;49.002;8.390;2022-07-01T01:29:24;18.50;99.90
1880;DHT22;49285;49.002;8.390;2022-07-01T01:31:49;18.60;99.90
1880;DHT22;49285;49.002;8.390;2022-07-01T01:34:15;18.60;99.90
1880;DHT22;49285;49.002;8.390;2022-07-01T01:36:40;18.50;99.90
1880;DHT22;49285;49.002;8.390;2022-07-01T01:39:06;18.70;99.90
1880;DHT22;49285;49.002;8.390;2022-07-01T01:41:42;18.60;99.90
1880;DHT22;49285;49.002;8.390;2022-07-01T01:44:07;18.70;99.90
1880;DHT22;49285;49.002;8.390;2022-07-01T01:46:33;18.60;99.90
1880;DHT22;49285;49.002;8.390;2022-07-01T01:49:00;18.60;99.90
1880;DHT22;49285;49.002;8.390;2022-07-01T01:51:26;18.60;99.90
1880;DHT22;49285;49.002;8.390;2022-07-01T01:53:52;18.60;99.90
1880;DHT22;49285;49.002;8.390;2022-07-01T01:56:18;18.60;99.90
1880;DHT22;49285;49.002;8.390;2022-07-01T01:58:44;18.40;99.90
1880;DHT22;49285;49.002;8.390;2022-07-01T02:01:11;18.50;99.90
1880;DHT22;49285;49.002;8.390;2022-07-01T02:03:39;18.40;99.90
1880;DHT22;49285;49.002;8.390;2022-07-01T02:06:06;18.50;99.90
1880;DHT22;49285;49.002;8.390;2022-07-01T02:08:32;18.70;99.90
1880;DHT22;49285;49.002;8.390;2022-07-01T02:10:58;18.80;99.90
1880;DHT22;49285;49.002;8.390;2022-07-01T02:13:24;18.80;99.90
1880;DHT22;49285;49.002;8.390;2022-07-01T02:15:50;18.80;99.90
1880;DHT22;49285;49.002;8.390;2022-07-01T02:18:16;18.80;99.90
1880;DHT22;49285;49.002;8.390;2022-07-01T02:20:41;18.60;99.90
1880;DHT22;49285;49.002;8.390;2022-07-01T02:23:08;18.60;99.90
1880;DHT22;49285;49.002;8.390;2022-07-01T02:25:34;18.50;99.90
1880;DHT22;49285;49.002;8.390;2022-07-01T02:28:00;18.50;99.90
1880;DHT22;49285;49.002;8.390;2022-07-01T02:30:27;18.50;99.90
1880;DHT22;49285;49.002;8.390;2022-07-01T02:32:52;18.50;99.90
1880;DHT22;49285;49.002;8.390;2022-07-01T02:35:18;18.40;99.90
1880;DHT22;49285;49.002;8.390;2022-07-01T02:37:44;18.40;99.90
1880;DHT22;49285;49.002;8.390;2022-07-01T02:40:10;18.40;99.90
1880;DHT22;49285;49.002;8.390;2022-07-01T02:42:37;18.40;99.90
1880;DHT22;49285;49.002;8.390;2022-07-01T02:45:07;18.50;99.90
1880;DHT22;49285;49.002;8.390;2022-07-01T02:47:38;18.40;99.90
1880;DHT22;49285;49.002;8.390;2022-07-01T02:50:05;18.40;99.90
1880;DHT22;49285;49.002;8.390;2022-07-01T02:52:32;18.20;99.90
1880;DHT22;49285;49.002;8.390;2022-07-01T02:55:02;18.10;99.90
1880;DHT22;49285;49.002;8.390;2022-07-01T02:57:29;18.20;99.90
1880;DHT22;49285;49.002;8.390;2022-07-01T02:59:57;18.20;99.90
1880;DHT22;49285;49.002;8.390;2022-07-01T03:02:25;18.20;99.90
1880;DHT22;49285;49.002;8.390;2022-07-01T03:04:52;18.30;99.90
1880;DHT22;49285;49.002;8.390;2022-07-01T03:07:19;18.20;99.90
1880;DHT22;49285;49.002;8.390;2022-07-01T03:09:45;18.10;99.90
1880;DHT22;49285;49.002;8.390;2022-07-01T03:12:12;18.10;99.90
1880;DHT22;49285;49.002;8.390;2022-07-01T03:14:54;17.90;99.90
1880;DHT22;49285;49.002;8.390;2022-07-01T03:17:21;18.00;99.90
1880;DHT22;49285;49.002;8.390;2022-07-01T03:19:46;17.90;99.90
1880;DHT22;49285;49.002;8.390;2022-07-01T03:22:13;17.90;99.90
1880;DHT22;49285;49.002;8.390;2022-07-01T03:24:38;17.90;99.90
1880;DHT22;49285;49.002;8.390;2022-07-01T03:27:04;18.00;99.90
1880;DHT22;49285;49.002;8.390;2022-07-01T03:29:29;18.00;99.90
1880;DHT22;49285;49.002;8.390;2022-07-01T03:31:55;18.00;99.90
1880;DHT22;49285;49.002;8.390;2022-07-01T03:34:21;18.10;99.90
1880;DHT22;49285;49.002;8.390;2022-07-01T03:36:46;18.10;99.90
1880;DHT22;49285;49.002;8.390;2022-07-01T03:39:12;17.90;99.90
1880;DHT22;49285;49.002;8.390;2022-07-01T03:41:38;17.90;99.90
1880;DHT22;49285;49.002;8.390;2022-07-01T03:44:03;18.00;99.90
1880;DHT22;49285;49.002;8.390;2022-07-01T03:46:29;18.00;99.90
1880;DHT22;49285;49.002;8.390;2022-07-01T03:48:57;17.80;99.90
1880;DHT22;49285;49.002;8.390;2022-07-01T03:51:23;17.90;99.90
1880;DHT22;49285;49.002;8.390;2022-07-01T03:53:48;17.90;99.90
1880;DHT22;49285;49.002;8.390;2022-07-01T03:56:32;17.80;99.90
1880;DHT22;49285;49.002;8.390;2022-07-01T03:58:58;17.80;99.90
1880;DHT22;49285;49.002;8.390;2022-07-01T04:01:23;17.80;99.90
1880;DHT22;49285;49.002;8.390;2022-07-01T04:03:49;18.00;99.90
1880;DHT22;49285;49.002;8.390;2022-07-01T04:06:15;18.00;99.90
1880;DHT22;49285;49.002;8.390;2022-07-01T04:08:41;18.10;99.90
1880;DHT22;49285;49.002;8.390;2022-07-01T04:11:06;18.20;99.90
1880;DHT22;49285;49.002;8.390;2022-07-01T04:13:35;18.00;99.90
1880;DHT22;49285;49.002;8.390;2022-07-01T04:16:02;18.00;99.90
1880;DHT22;49285;49.002;8.390;2022-07-01T04:18:29;17.90;99.90
1880;DHT22;49285;49.002;8.390;2022-07-01T04:20:54;17.90;99.90
1880;DHT22;49285;49.002;8.390;2022-07-01T04:23:38;18.00;99.90
1880;DHT22;49285;49.002;8.390;2022-07-01T04:26:04;18.00;99.90
1880;DHT22;49285;49.002;8.390;2022-07-01T04:28:30;18.20;99.90
1880;DHT22;49285;49.002;8.390;2022-07-01T04:30:55;18.00;99.90
1880;DHT22;49285;49.002;8.390;2022-07-01T04:33:21;17.80;99.90
1880;DHT22;49285;49.002;8.390;2022-07-01T04:35:46;17.80;99.90
1880;DHT22;49285;49.002;8.390;2022-07-01T04:38:12;17.80;99.90
1880;DHT22;49285;49.002;8.390;2022-07-01T04:40:38;17.90;99.90
1880;DHT22;49285;49.002;8.390;2022-07-01T04:43:03;18.00;99.90
1880;DHT22;49285;49.002;8.390;2022-07-01T04:45:29;17.90;99.90
1880;DHT22;49285;49.002;8.390;2022-07-01T04:47:54;17.80;99.90
1880;DHT22;49285;49.002;8.390;2022-07-01T04:50:20;17.60;99.90
1880;DHT22;49285;49.002;8.390;2022-07-01T04:52:46;17.60;99.90
1880;DHT22;49285;49.002;8.390;2022-07-01T04:55:13;17.60;99.90
1880;DHT22;49285;49.002;8.390;2022-07-01T04:57:38;17.70;99.90
1880;DHT22;49285;49.002;8.390;2022-07-01T05:00:04;17.70;99.90
1880;DHT22;49285;49.002;8.390;2022-07-01T05:02:30;17.60;99.90
1880;DHT22;49285;49.002;8.390;2022-07-01T05:04:55;17.60;99.90
1880;DHT22;49285;49.002;8.390;2022-07-01T05:07:21;17.60;99.90
1880;DHT22;49285;49.002;8.390;2022-07-01T05:09:57;17.60;99.90
1880;DHT22;49285;49.002;8.390;2022-07-01T05:12:24;17.60;99.90
1880;DHT22;49285;49.002;8.390;2022-07-01T05:14:50;17.70;99.90
1880;DHT22;49285;49.002;8.390;2022-07-01T05:17:16;17.60;99.90
1880;DHT22;49285;49.002;8.390;2022-07-01T05:19:42;17.60;99.90
1880;DHT22;49285;49.002;8.390;2022-07-01T05:22:26;17.60;99.90
1880;DHT22;49285;49.002;8.390;2022-07-01T05:24:52;17.70;99.90
1880;DHT22;49285;49.002;8.390;2022-07-01T05:27:17;17.80;99.90
1880;DHT22;49285;49.002;8.390;2022-07-01T05:29:43;17.70;99.90
1880;DHT22;49285;49.002;8.390;2022-07-01T05:32:08;17.60;99.90
1880;DHT22;49285;49.002;8.390;2022-07-01T05:34:34;17.60;99.90
1880;DHT22;49285;49.002;8.390;2022-07-01T05:37:01;17.50;99.90
1880;DHT22;49285;49.002;8.390;2022-07-01T05:39:27;17.70;99.90
1880;DHT22;49285;49.002;8.390;2022-07-01T05:41:52;17.70;99.90
1880;DHT22;49285;49.002;8.390;2022-07-01T05:44:18;17.70;99.90
1880;DHT22;49285;49.002;8.390;2022-07-01T05:46:43;17.70;99.90
1880;DHT22;49285;49.002;8.390;2022-07-01T05:49:09;17.70;99.90
1880;DHT22;49285;49.002;8.390;2022-07-01T05:51:34;17.70;99.90
1880;DHT22;49285;49.002;8.390;2022-07-01T05:54:00;17.70;99.90
1880;DHT22;49285;49.002;8.390;2022-07-01T05:56:26;17.60;99.90
1880;DHT22;49285;49.002;8.390;2022-07-01T05:58:52;17.60;99.90
1880;DHT22;49285;49.002;8.390;2022-07-01T06:01:18;17.70;99.90
1880;DHT22;49285;49.002;8.390;2022-07-01T06:03:43;17.80;99.90
1880;DHT22;49285;49.002;8.390;2022-07-01T06:06:09;17.60;99.90
1880;DHT22;49285;49.002;8.390;2022-07-01T06:08:35;17.50;99.90
1880;DHT22;49285;49.002;8.390;2022-07-01T06:11:01;17.50;99.90
1880;DHT22;49285;49.002;8.390;2022-07-01T06:13:27;17.50;99.90
1880;DHT22;49285;49.002;8.390;2022-07-01T06:15:54;17.50;99.90
1880;DHT22;49285;49.002;8.390;2022-07-01T06:18:20;17.30;99.90
1880;DHT22;49285;49.002;8.390;2022-07-01T06:20:45;17.40;99.90
1880;DHT22;49285;49.002;8.390;2022-07-01T06:23:11;17.50;99.90
1880;DHT22;49285;49.002;8.390;2022-07-01T06:25:36;17.50;99.90
1880;DHT22;49285;49.002;8.390;2022-07-01T06:28:02;17.60;99.90
1880;DHT22;49285;49.002;8.390;2022-07-01T06:30:27;17.70;99.90
1880;DHT22;49285;49.002;8.390;2022-07-01T06:32:53;17.80;99.90
1880;DHT22;49285;49.002;8.390;2022-07-01T06:35:19;17.80;99.90
1880;DHT22;49285;49.002;8.390;2022-07-01T06:37:44;17.70;99.90
1880;DHT22;49285;49.002;8.390;2022-07-01T06:40:10;17.60;99.90
1880;DHT22;49285;49.002;8.390;2022-07-01T06:42:36;17.70;99.90
1880;DHT22;49285;49.002;8.390;2022-07-01T06:45:01;17.60;99.90
1880;DHT22;49285;49.002;8.390;2022-07-01T06:47:27;17.80;99.90
1880;DHT22;49285;49.002;8.390;2022-07-01T06:49:53;18.00;99.90
1880;DHT22;49285;49.002;8.390;2022-07-01T06:52:18;18.00;99.90
1880;DHT22;49285;49.002;8.390;2022-07-01T06:54:44;17.90;99.90
1880;DHT22;49285;49.002;8.390;2022-07-01T06:57:10;17.80;99.90
1880;DHT22;49285;49.002;8.390;2022-07-01T06:59:35;17.80;99.90
1880;DHT22;49285;49.002;8.390;2022-07-01T07:02:01;17.80;99.90
1880;DHT22;49285;49.002;8.390;2022-07-01T07:04:26;17.70;99.90
1880;DHT22;49285;49.002;8.390;2022-07-01T07:06:52;17.70;99.90
1880;DHT22;49285;49.002;8.390;2022-07-01T07:09:18;17.80;99.90
1880;DHT22;49285;49.002;8.390;2022-07-01T07:11:43;17.80;99.90
1880;DHT22;49285;49.002;8.390;2022-07-01T07:14:09;17.90;99.90
1880;DHT22;49285;49.002;8.390;2022-07-01T07:16:34;17.80;99.90
1880;DHT22;49285;49.002;8.390;2022-07-01T07:19:00;17.80;99.90
1880;DHT22;49285;49.002;8.390;2022-07-01T07:21:25;17.80;99.90
1880;DHT22;49285;49.002;8.390;2022-07-01T07:23:51;17.80;99.90
1880;DHT22;49285;49.002;8.390;2022-07-01T07:26:17;17.80;99.90
1880;DHT22;49285;49.002;8.390;2022-07-01T07:28:42;17.80;99.90
1880;DHT22;49285;49.002;8.390;2022-07-01T07:31:08;17.70;99.90
1880;DHT22;49285;49.002;8.390;2022-07-01T07:33:34;17.80;99.90
1880;DHT22;49285;49.002;8.390;2022-07-01T07:35:59;17.90;99.90
1880;DHT22;49285;49.002;8.390;2022-07-01T07:38:25;18.00;99.90
1880;DHT22;49285;49.002;8.390;2022-07-01T07:40:50;18.00;99.90
1880;DHT22;49285;49.002;8.390;2022-07-01T07:43:16;17.90;99.90
1880;DHT22;49285;49.002;8.390;2022-07-01T07:45:41;17.80;99.90
1880;DHT22;49285;49.002;8.390;2022-07-01T07:48:07;17.90;99.90
1880;DHT22;49285;49.002;8.390;2022-07-01T07:50:35;17.80;99.90
1880;DHT22;49285;49.002;8.390;2022-07-01T07:53:00;18.00;99.90
1880;DHT22;49285;49.002;8.390;2022-07-01T07:55:26;17.90;99.90
1880;DHT22;49285;49.002;8.390;2022-07-01T07:57:53;17.90;99.90
1880;DHT22;49285;49.002;8.390;2022-07-01T08:00:19;17.80;99.90
1880;DHT22;49285;49.002;8.390;2022-07-01T08:02:46;17.70;99.90
1880;DHT22;49285;49.002;8.390;2022-07-01T08:05:11;17.70;99.90
1880;DHT22;49285;49.002;8.390;2022-07-01T08:07:38;17.70;99.90
1880;DHT22;49285;49.002;8.390;2022-07-01T08:10:06;17.60;99.90
1880;DHT22;49285;49.002;8.390;2022-07-01T08:12:33;17.60;99.90
1880;DHT22;49285;49.002;8.390;2022-07-01T08:14:59;17.60;99.90
1880;DHT22;49285;49.002;8.390;2022-07-01T08:17:24;17.60;99.90
1880;DHT22;49285;49.002;8.390;2022-07-01T08:19:50;17.50;99.90
1880;DHT22;49285;49.002;8.390;2022-07-01T08:22:16;17.60;99.90
1880;DHT22;49285;49.002;8.390;2022-07-01T08:24:42;17.60;99.90
1880;DHT22;49285;49.002;8.390;2022-07-01T08:27:07;17.60;99.90
1880;DHT22;49285;49.002;8.390;2022-07-01T08:29:33;17.70;99.90
1880;DHT22;49285;49.002;8.390;2022-07-01T08:31:59;17.70;99.90
1880;DHT22;49285;49.002;8.390;2022-07-01T08:34:24;17.90;99.90
1880;DHT22;49285;49.002;8.390;2022-07-01T08:36:50;17.80;99.90
1880;DHT22;49285;49.002;8.390;2022-07-01T08:39:15;17.90;99.90
1880;DHT22;49285;49.002;8.390;2022-07-01T08:41:41;18.00;99.90
1880;DHT22;49285;49.002;8.390;2022-07-01T08:44:07;17.90;99.90
1880;DHT22;49285;49.002;8.390;2022-07-01T08:46:35;18.10;99.90
1880;DHT22;49285;49.002;8.390;2022-07-01T08:49:01;18.10;99.90
1880;DHT22;49285;49.002;8.390;2022-07-01T08:51:27;18.40;99.90
1880;DHT22;49285;49.002;8.390;2022-07-01T08:53:52;18.50;99.90
1880;DHT22;49285;49.002;8.390;2022-07-01T08:56:18;18.50;99.90
1880;DHT22;49285;49.002;8.390;2022-07-01T08:59:02;18.60;99.90
1880;DHT22;49285;49.002;8.390;2022-07-01T09:01:28;18.80;99.90
1880;DHT22;49285;49.002;8.390;2022-07-01T09:03:55;18.80;99.90
1880;DHT22;49285;49.002;8.390;2022-07-01T09:06:23;18.90;99.90
1880;DHT22;49285;49.002;8.390;2022-07-01T09:08:51;18.80;99.90
1880;DHT22;49285;49.002;8.390;2022-07-01T09:11:23;18.80;99.90
1880;DHT22;49285;49.002;8.390;2022-07-01T09:14:07;18.90;99.90
1880;DHT22;49285;49.002;8.390;2022-07-01T09:16:41;19.00;99.90
1880;DHT22;49285;49.002;8.390;2022-07-01T09:19:07;19.10;99.90
1880;DHT22;49285;49.002;8.390;2022-07-01T09:21:32;19.10;99.90
1880;DHT22;49285;49.002;8.390;2022-07-01T09:24:02;19.20;99.90
1880;DHT22;49285;49.002;8.390;2022-07-01T09:26:28;19.20;99.90
1880;DHT22;49285;49.002;8.390;2022-07-01T09:28:54;19.40;99.90
1880;DHT22;49285;49.002;8.390;2022-07-01T09:31:21;19.50;99.90
1880;DHT22;49285;49.002;8.390;2022-07-01T09:34:05;19.70;99.90
1880;DHT22;49285;49.002;8.390;2022-07-01T09:36:31;19.80;99.90
1880;DHT22;49285;49.002;8.390;2022-07-01T09:39:03;19.60;99.90
1880;DHT22;49285;49.002;8.390;2022-07-01T09:41:35;19.50;99.90
1880;DHT22;49285;49.002;8.390;2022-07-01T09:44:08;19.50;99.90
1880;DHT22;49285;49.002;8.390;2022-07-01T09:46:34;19.40;99.90
1880;DHT22;49285;49.002;8.390;2022-07-01T09:48:59;19.50;99.90
1880;DHT22;49285;49.002;8.390;2022-07-01T09:51:26;19.70;99.90
1880;DHT22;49285;49.002;8.390;2022-07-01T09:53:51;19.80;99.90
1880;DHT22;49285;49.002;8.390;2022-07-01T09:56:18;19.70;99.90
1880;DHT22;49285;49.002;8.390;2022-07-01T09:58:45;19.60;99.90
1880;DHT22;49285;49.002;8.390;2022-07-01T10:01:12;19.70;99.90
1880;DHT22;49285;49.002;8.390;2022-07-01T10:03:38;19.70;99.90
1880;DHT22;49285;49.002;8.390;2022-07-01T10:06:42;20.00;99.90
1880;DHT22;49285;49.002;8.390;2022-07-01T10:12:35;20.30;99.90
1880;DHT22;49285;49.002;8.390;2022-07-01T10:15:03;20.40;99.90
1880;DHT22;49285;49.002;8.390;2022-07-01T10:17:33;20.40;99.90
1880;DHT22;49285;49.002;8.390;2022-07-01T10:20:10;20.60;99.90
1880;DHT22;49285;49.002;8.390;2022-07-01T10:22:37;20.60;99.90
1880;DHT22;49285;49.002;8.390;2022-07-01T10:25:29;20.70;99.90
1880;DHT22;49285;49.002;8.390;2022-07-01T10:33:38;20.60;99.90
1880;DHT22;49285;49.002;8.390;2022-07-01T10:36:05;20.60;99.90
1880;DHT22;49285;49.002;8.390;2022-07-01T10:38:31;20.40;99.90
1880;DHT22;49285;49.002;8.390;2022-07-01T10:40:57;20.70;99.90
1880;DHT22;49285;49.002;8.390;2022-07-01T10:43:35;20.70;99.90
1880;DHT22;49285;49.002;8.390;2022-07-01T10:46:01;20.70;99.90
1880;DHT22;49285;49.002;8.390;2022-07-01T10:48:30;20.90;99.90
1880;DHT22;49285;49.002;8.390;2022-07-01T10:50:56;21.10;99.90
1880;DHT22;49285;49.002;8.390;2022-07-01T10:53:22;21.00;99.90
1880;DHT22;49285;49.002;8.390;2022-07-01T10:55:50;21.20;99.90
1880;DHT22;49285;49.002;8.390;2022-07-01T10:58:16;21.50;99.90
1880;DHT22;49285;49.002;8.390;2022-07-01T11:00:48;21.50;99.90
1880;DHT22;49285;49.002;8.390;2022-07-01T11:03:17;21.40;99.90
1880;DHT22;49285;49.002;8.390;2022-07-01T11:05:45;21.40;99.90
1880;DHT22;49285;49.002;8.390;2022-07-01T11:08:11;21.20;99.90
1880;DHT22;49285;49.002;8.390;2022-07-01T11:10:38;21.10;99.90
1880;DHT22;49285;49.002;8.390;2022-07-01T11:13:04;21.20;99.90
1880;DHT22;49285;49.002;8.390;2022-07-01T11:15:30;21.20;99.90
1880;DHT22;49285;49.002;8.390;2022-07-01T11:17:57;21.30;99.90
1880;DHT22;49285;49.002;8.390;2022-07-01T11:20:25;21.10;99.90
1880;DHT22;49285;49.002;8.390;2022-07-01T11:22:51;21.30;99.90
1880;DHT22;49285;49.002;8.390;2022-07-01T11:25:18;21.50;99.90
1880;DHT22;49285;49.002;8.390;2022-07-01T11:27:49;21.70;99.90
1880;DHT22;49285;49.002;8.390;2022-07-01T11:30:16;22.30;99.90
1880;DHT22;49285;49.002;8.390;2022-07-01T11:32:51;22.70;99.90
1880;DHT22;49285;49.002;8.390;2022-07-01T11:35:22;23.00;99.90
1880;DHT22;49285;49.002;8.390;2022-07-01T11:38:15;22.80;99.90
1880;DHT22;49285;49.002;8.390;2022-07-01T11:41:02;22.80;99.90
1880;DHT22;49285;49.002;8.390;2022-07-01T11:43:30;22.70;99.90
1880;DHT22;49285;49.002;8.390;2022-07-01T11:45:58;22.60;99.90
1880;DHT22;49285;49.002;8.390;2022-07-01T11:48:44;22.70;99.90
1880;DHT22;49285;49.002;8.390;2022-07-01T11:51:15;22.60;99.90
1880;DHT22;49285;49.002;8.390;2022-07-01T11:53:43;22.60;99.90
1880;DHT22;49285;49.002;8.390;2022-07-01T11:56:10;22.60;99.90
1880;DHT22;49285;49.002;8.390;2022-07-01T12:01:29;22.60;99.90
1880;DHT22;49285;49.002;8.390;2022-07-01T12:03:57;22.70;99.90
1880;DHT22;49285;49.002;8.390;2022-07-01T12:06:23;22.90;99.90
1880;DHT22;49285;49.002;8.390;2022-07-01T12:08:50;23.00;99.90
1880;DHT22;49285;49.002;8.390;2022-07-01T12:11:17;22.80;99.90
1880;DHT22;49285;49.002;8.390;2022-07-01T12:13:45;23.10;99.90
1880;DHT22;49285;49.002;8.390;2022-07-01T12:16:12;23.40;99.90
1880;DHT22;49285;49.002;8.390;2022-07-01T12:18:38;23.60;99.90
1880;DHT22;49285;49.002;8.390;2022-07-01T12:21:04;23.30;99.90
1880;DHT22;49285;49.002;8.390;2022-07-01T12:23:30;23.40;99.90
1880;DHT22;49285;49.002;8.390;2022-07-01T12:25:58;23.60;99.90
1880;DHT22;49285;49.002;8.390;2022-07-01T12:31:05;23.90;99.90
1880;DHT22;49285;49.002;8.390;2022-07-01T12:33:39;23.90;99.90
1880;DHT22;49285;49.002;8.390;2022-07-01T12:36:06;24.60;99.90
1880;DHT22;49285;49.002;8.390;2022-07-01T12:38:33;24.70;99.90
1880;DHT22;49285;49.002;8.390;2022-07-01T12:40:59;24.50;99.90
1880;DHT22;49285;49.002;8.390;2022-07-01T12:43:29;25.40;99.90
1880;DHT22;49285;49.002;8.390;2022-07-01T12:46:00;26.10;99.90
1880;DHT22;49285;49.002;8.390;2022-07-01T12:48:25;27.30;99.90
1880;DHT22;49285;49.002;8.390;2022-07-01T12:50:53;29.60;99.10
1880;DHT22;49285;49.002;8.390;2022-07-01T12:53:20;30.40;92.00
1880;DHT22;49285;49.002;8.390;2022-07-01T12:55:55;31.20;85.70
1880;DHT22;49285;49.002;8.390;2022-07-01T12:58:26;31.90;79.70
1880;DHT22;49285;49.002;8.390;2022-07-01T13:00:54;32.30;73.10
1880;DHT22;49285;49.002;8.390;2022-07-01T13:03:22;32.10;71.60
1880;DHT22;49285;49.002;8.390;2022-07-01T13:05:49;32.90;69.40
1880;DHT22;49285;49.002;8.390;2022-07-01T13:08:15;33.30;65.80
1880;DHT22;49285;49.002;8.390;2022-07-01T13:10:41;33.60;59.60
1880;DHT22;49285;49.002;8.390;2022-07-01T13:13:07;33.10;59.50
1880;DHT22;49285;49.002;8.390;2022-07-01T13:15:33;32.70;60.40
1880;DHT22;49285;49.002;8.390;2022-07-01T13:17:59;32.20;60.00
1880;DHT22;49285;49.002;8.390;2022-07-01T13:20:25;32.10;58.80
1880;DHT22;49285;49.002;8.390;2022-07-01T13:22:51;32.20;59.20
1880;DHT22;49285;49.002;8.390;2022-07-01T13:25:17;33.30;58.30
1880;DHT22;49285;49.002;8.390;2022-07-01T13:27:43;33.10;56.40
1880;DHT22;49285;49.002;8.390;2022-07-01T13:30:10;33.30;57.10
1880;DHT22;49285;49.002;8.390;2022-07-01T13:32:36;33.60;55.20
1880;DHT22;49285;49.002;8.390;2022-07-01T13:35:03;33.20;54.40
1880;DHT22;49285;49.002;8.390;2022-07-01T13:37:29;33.30;54.70
1880;DHT22;49285;49.002;8.390;2022-07-01T13:39:55;32.20;53.80
1880;DHT22;49285;49.002;8.390;2022-07-01T13:42:20;32.20;54.40
1880;DHT22;49285;49.002;8.390;2022-07-01T13:44:46;31.70;56.40
1880;DHT22;49285;49.002;8.390;2022-07-01T13:47:11;33.60;54.80
1880;DHT22;49285;49.002;8.390;2022-07-01T13:49:40;34.20;54.60
1880;DHT22;49285;49.002;8.390;2022-07-01T13:52:08;36.00;52.40
1880;DHT22;49285;49.002;8.390;2022-07-01T13:54:34;35.40;51.60
1880;DHT22;49285;49.002;8.390;2022-07-01T13:56:59;34.60;49.90
1880;DHT22;49285;49.002;8.390;2022-07-01T13:59:25;32.80;52.30
1880;DHT22;49285;49.002;8.390;2022-07-01T14:01:51;31.70;52.90
1880;DHT22;49285;49.002;8.390;2022-07-01T14:04:16;30.10;54.40
1880;DHT22;49285;49.002;8.390;2022-07-01T14:06:42;29.60;56.20
1880;DHT22;49285;49.002;8.390;2022-07-01T14:09:08;30.50;57.10
1880;DHT22;49285;49.002;8.390;2022-07-01T14:11:33;30.70;55.70
1880;DHT22;49285;49.002;8.390;2022-07-01T14:13:59;31.20;55.30
1880;DHT22;49285;49.002;8.390;2022-07-01T14:16:24;30.90;55.00
1880;DHT22;49285;49.002;8.390;2022-07-01T14:18:51;29.80;56.60
1880;DHT22;49285;49.002;8.390;2022-07-01T14:21:18;28.80;57.70
1880;DHT22;49285;49.002;8.390;2022-07-01T14:23:43;27.60;59.60
1880;DHT22;49285;49.002;8.390;2022-07-01T14:26:09;28.00;61.20
1880;DHT22;49285;49.002;8.390;2022-07-01T14:28:35;30.20;59.40
1880;DHT22;49285;49.002;8.390;2022-07-01T14:31:00;31.70;56.40
1880;DHT22;49285;49.002;8.390;2022-07-01T14:33:26;31.70;55.20
1880;DHT22;49285;49.002;8.390;2022-07-01T14:35:52;30.30;56.10
1880;DHT22;49285;49.002;8.390;2022-07-01T14:38:17;29.10;57.80
1880;DHT22;49285;49.002;8.390;2022-07-01T14:40:43;29.80;59.00
1880;DHT22;49285;49.002;8.390;2022-07-01T14:43:09;30.60;58.70
1880;DHT22;49285;49.002;8.390;2022-07-01T14:45:35;31.00;57.80
1880;DHT22;49285;49.002;8.390;2022-07-01T14:48:01;29.50;57.40
1880;DHT22;49285;49.002;8.390;2022-07-01T14:50:26;29.40;58.10
1880;DHT22;49285;49.002;8.390;2022-07-01T14:52:52;28.50;59.00
1880;DHT22;49285;49.002;8.390;2022-07-01T14:55:18;27.60;60.70
1880;DHT22;49285;49.002;8.390;2022-07-01T14:57:43;27.50;62.70
1880;DHT22;49285;49.002;8.390;2022-07-01T15:00:10;27.50;62.90
1880;DHT22;49285;49.002;8.390;2022-07-01T15:02:37;26.90;63.60
1880;DHT22;49285;49.002;8.390;2022-07-01T15:05:04;26.50;65.50
1880;DHT22;49285;49.002;8.390;2022-07-01T15:07:30;26.10;66.20
1880;DHT22;49285;49.002;8.390;2022-07-01T15:09:55;25.80;67.00
1880;DHT22;49285;49.002;8.390;2022-07-01T15:12:22;25.90;67.10
1880;DHT22;49285;49.002;8.390;2022-07-01T15:14:47;25.80;68.40
1880;DHT22;49285;49.002;8.390;2022-07-01T15:17:13;25.50;70.00
1880;DHT22;49285;49.002;8.390;2022-07-01T15:19:39;25.60;70.70
1880;DHT22;49285;49.002;8.390;2022-07-01T15:22:06;25.70;70.70
1880;DHT22;49285;49.002;8.390;2022-07-01T15:24:33;25.60;71.00
1880;DHT22;49285;49.002;8.390;2022-07-01T15:26:59;25.80;69.20
1880;DHT22;49285;49.002;8.390;2022-07-01T15:29:25;26.60;69.00
1880;DHT22;49285;49.002;8.390;2022-07-01T15:31:50;28.40;66.00
1880;DHT22;49285;49.002;8.390;2022-07-01T15:34:16;29.40;62.40
1880;DHT22;49285;49.002;8.390;2022-07-01T15:36:42;30.50;59.70
1880;DHT22;49285;49.002;8.390;2022-07-01T15:39:08;31.00;58.40
1880;DHT22;49285;49.002;8.390;2022-07-01T15:41:34;30.00;58.00
1880;DHT22;49285;49.002;8.390;2022-07-01T15:44:00;29.00;59.20
1880;DHT22;49285;49.002;8.390;2022-07-01T15:46:26;28.30;61.90
1880;DHT22;49285;49.002;8.390;2022-07-01T15:48:51;27.60;62.50
1880;DHT22;49285;49.002;8.390;2022-07-01T15:51:17;27.50;63.10
1880;DHT22;49285;49.002;8.390;2022-07-01T15:53:43;26.90;63.50
1880;DHT22;49285;49.002;8.390;2022-07-01T15:56:08;26.60;65.00
1880;DHT22;49285;49.002;8.390;2022-07-01T15:58:34;26.50;65.50